Time;durP1;ratioP1;P1;durP2;ratioP2;P2;SDS_P1;SDS_P2;PMS_P1;PMS_P2;Temp;Humidity;BMP_temperature;BMP_pressure;BME280_temperature;BME280_humidity;BME280_pressure;Samples;Min_cycle;Max_cycle;Signal;HPM_P1;HPM_P2
2020/12/22 00:02:12;;;;;;;3.40;3.10;;;9.50;88.40;;;;;;4979396;28;20031;-67
2020/12/22 00:04:38;;;;;;;3.22;2.92;;;9.50;88.30;;;;;;4978687;28;20039;-66
2020/12/22 00:07:04;;;;;;;3.50;3.20;;;9.50;88.30;;;;;;4982190;28;20038;-64
2020/12/22 00:09:29;;;;;;;3.40;3.10;;;9.60;88.30;;;;;;4982202;28;20041;-66
2020/12/22 00:11:55;;;;;;;4.07;3.35;;;9.60;88.30;;;;;;4983994;28;20403;-67
2020/12/22 00:14:20;;;;;;;3.72;3.40;;;9.60;88.30;;;;;;4982785;28;20081;-66
2020/12/22 00:16:46;;;;;;;3.65;2.90;;;9.60;88.30;;;;;;4983148;28;20054;-67
2020/12/22 00:19:12;;;;;;;3.50;3.20;;;9.60;88.20;;;;;;4983921;28;20045;-67
2020/12/22 00:21:37;;;;;;;3.22;2.97;;;9.60;88.10;;;;;;4982401;28;20046;-67
2020/12/22 00:24:03;;;;;;;3.85;3.50;;;9.70;88.10;;;;;;4983664;28;20038;-66
2020/12/22 00:26:29;;;;;;;3.03;2.83;;;9.70;88.20;;;;;;4981460;28;20034;-66
2020/12/22 00:28:55;;;;;;;3.50;3.22;;;9.70;88.10;;;;;;4983931;28;20027;-66
2020/12/22 00:31:21;;;;;;;3.78;3.40;;;9.80;88.20;;;;;;4983516;28;20031;-65
2020/12/22 00:33:46;;;;;;;3.55;3.25;;;9.70;88.30;;;;;;4983437;28;20708;-66
2020/12/22 00:36:12;;;;;;;3.38;3.08;;;9.80;88.20;;;;;;4983528;28;20188;-65
2020/12/22 00:38:38;;;;;;;2.95;2.75;;;9.80;88.20;;;;;;4980429;28;20034;-64
2020/12/22 00:41:03;;;;;;;3.22;3.00;;;9.80;88.30;;;;;;4984165;28;20038;-66
2020/12/22 00:43:29;;;;;;;3.38;3.08;;;9.90;88.20;;;;;;4981494;28;20054;-66
2020/12/22 00:45:55;;;;;;;3.40;3.10;;;9.80;88.20;;;;;;4983115;28;20053;-65
2020/12/22 00:48:20;;;;;;;3.97;3.63;;;9.90;88.20;;;;;;4981879;28;20035;-67
2020/12/22 00:50:46;;;;;;;3.22;2.90;;;9.90;88.20;;;;;;4981826;28;20157;-66
2020/12/22 00:53:12;;;;;;;3.95;2.85;;;9.90;88.30;;;;;;4983189;28;20401;-65
2020/12/22 00:55:37;;;;;;;3.42;3.05;;;9.90;88.20;;;;;;4983241;28;20038;-66
2020/12/22 00:58:03;;;;;;;3.00;2.80;;;9.90;88.30;;;;;;4982751;28;20034;-65
2020/12/22 01:00:29;;;;;;;3.00;2.75;;;10.00;88.20;;;;;;4980234;28;20623;-66
2020/12/22 01:02:54;;;;;;;3.35;3.05;;;10.00;88.10;;;;;;4982576;28;20034;-66
2020/12/22 01:05:20;;;;;;;3.30;3.00;;;10.00;88.10;;;;;;4983109;28;20026;-66
2020/12/22 01:07:48;;;;;;;7.28;2.97;;;10.10;88.10;;;;;;4982690;28;20974;-66
2020/12/22 01:10:13;;;;;;;3.30;3.00;;;10.00;88.00;;;;;;4982703;28;20035;-66
2020/12/22 01:12:41;;;;;;;3.67;3.38;;;10.10;88.10;;;;;;4981746;28;20039;-65
2020/12/22 01:15:07;;;;;;;3.30;3.00;;;10.10;88.00;;;;;;4971767;28;20045;-66
2020/12/22 01:17:33;;;;;;;3.42;3.13;;;10.10;88.00;;;;;;4981691;28;20035;-66
2020/12/22 01:19:58;;;;;;;3.45;3.10;;;10.20;88.00;;;;;;4981190;28;20105;-66
2020/12/22 01:22:24;;;;;;;3.15;2.90;;;10.20;88.00;;;;;;4981810;28;20125;-66
2020/12/22 01:24:49;;;;;;;3.45;3.15;;;10.10;87.90;;;;;;4980600;28;20080;-66
2020/12/22 01:27:15;;;;;;;3.30;3.00;;;10.20;87.90;;;;;;4982240;28;20626;-65
2020/12/22 01:29:40;;;;;;;3.67;3.38;;;10.20;87.90;;;;;;4981546;28;20038;-66
2020/12/22 01:32:06;;;;;;;3.92;3.60;;;10.20;87.80;;;;;;4982486;28;20954;-66
2020/12/22 01:34:32;;;;;;;3.88;3.58;;;10.20;87.80;;;;;;4981729;28;20027;-66
2020/12/22 01:36:57;;;;;;;3.72;3.42;;;10.20;87.80;;;;;;4982362;28;20101;-66
2020/12/22 01:39:23;;;;;;;5.38;3.70;;;10.30;87.90;;;;;;4980196;28;20439;-67
2020/12/22 01:41:48;;;;;;;3.85;3.45;;;10.30;87.80;;;;;;4981737;28;20031;-66
2020/12/22 01:44:16;;;;;;;4.70;4.30;;;10.30;87.80;;;;;;4981902;28;20041;-65
2020/12/22 01:46:42;;;;;;;3.88;3.58;;;10.30;87.80;;;;;;4979855;28;20459;-66
2020/12/22 01:49:25;;;;;;;4.22;3.83;;;10.30;87.80;;;;;;4981470;28;20113;-66
2020/12/22 01:51:55;;;;;;;4.35;3.60;;;10.30;87.90;;;;;;4981643;28;20121;-66
2020/12/22 01:54:22;;;;;;;4.10;3.63;;;10.30;87.80;;;;;;4981470;28;20046;-67
2020/12/22 01:56:48;;;;;;;5.70;4.13;;;10.30;87.80;;;;;;4980549;28;20035;-66
2020/12/22 01:59:14;;;;;;;3.53;3.22;;;10.30;87.80;;;;;;4981419;28;20042;-65
2020/12/22 02:01:40;;;;;;;3.92;3.53;;;10.30;88.60;;;;;;4982589;28;20125;-66
2020/12/22 02:04:08;;;;;;;4.45;3.80;;;10.30;87.80;;;;;;4980708;28;20038;-65
2020/12/22 02:06:34;;;;;;;4.00;3.60;;;10.40;87.90;;;;;;4981751;28;20035;-65
2020/12/22 02:09:03;;;;;;;4.05;3.75;;;10.40;87.90;;;;;;4980404;28;20041;-65
2020/12/22 02:11:29;;;;;;;3.83;3.53;;;10.40;87.90;;;;;;4981234;28;20046;-66
2020/12/22 02:13:59;;;;;;;4.68;4.10;;;10.30;87.80;;;;;;4979662;28;20046;-66
2020/12/22 02:16:25;;;;;;;3.92;3.60;;;10.40;87.90;;;;;;4981131;28;20035;-66
2020/12/22 02:18:53;;;;;;;3.80;3.42;;;10.40;87.80;;;;;;4978953;28;20038;-65
2020/12/22 02:21:19;;;;;;;4.25;3.85;;;10.40;87.80;;;;;;4981137;28;20054;-66
2020/12/22 02:23:49;;;;;;;4.30;3.90;;;10.40;87.80;;;;;;4980634;28;20993;-65
2020/12/22 02:26:25;;;;;;;4.32;3.45;;;10.50;87.90;;;;;;4978537;28;20540;-65
2020/12/22 02:28:54;;;;;;;3.60;3.30;;;10.50;88.60;;;;;;4980090;28;20054;-66
2020/12/22 02:31:25;;;;;;;4.28;3.25;;;10.50;87.70;;;;;;4980509;28;20031;-65
2020/12/22 02:33:51;;;;;;;3.53;3.22;;;10.50;87.80;;;;;;4980702;28;20031;-65
2020/12/22 02:36:17;;;;;;;3.40;3.10;;;10.50;87.80;;;;;;4980522;28;20042;-65
2020/12/22 02:38:43;;;;;;;3.58;3.13;;;10.50;87.80;;;;;;4980491;28;20045;-65
2020/12/22 02:41:09;;;;;;;3.35;3.03;;;10.60;87.80;;;;;;4980676;28;20042;-65
2020/12/22 02:43:35;;;;;;;3.40;3.10;;;10.60;87.80;;;;;;4980150;28;20085;-66
2020/12/22 02:46:01;;;;;;;3.88;3.17;;;10.60;87.70;;;;;;4981242;28;20046;-65
2020/12/22 02:48:27;;;;;;;3.20;2.90;;;10.60;87.70;;;;;;4979612;28;20035;-65
2020/12/22 02:50:53;;;;;;;3.08;2.75;;;10.60;87.60;;;;;;4979662;28;20042;-65
2020/12/22 02:53:18;;;;;;;3.22;2.58;;;10.70;87.80;;;;;;4978417;28;20093;-65
2020/12/22 02:55:44;;;;;;;2.60;2.40;;;10.70;87.80;;;;;;4980640;28;20129;-66
2020/12/22 02:58:10;;;;;;;2.50;2.30;;;10.70;87.70;;;;;;4980396;28;20026;-66
2020/12/22 03:00:37;;;;;;;3.65;2.33;;;10.80;87.70;;;;;;4979600;28;20034;-65
2020/12/22 03:03:03;;;;;;;2.55;2.35;;;10.80;88.50;;;;;;4996352;28;20069;-65
2020/12/22 03:05:28;;;;;;;2.67;2.33;;;10.80;87.70;;;;;;4980759;28;20058;-65
2020/12/22 03:07:54;;;;;;;4.30;2.00;;;10.80;87.60;;;;;;4980361;28;20104;-66
2020/12/22 03:10:20;;;;;;;2.10;1.90;;;10.80;87.60;;;;;;4981380;28;20138;-65
2020/12/22 03:12:47;;;;;;;2.20;2.00;;;10.90;87.70;;;;;;4979831;28;20035;-65
2020/12/22 03:15:12;;;;;;;1.80;1.70;;;10.90;87.70;;;;;;4980047;28;20023;-66
2020/12/22 03:17:39;;;;;;;1.70;1.60;;;10.90;88.50;;;;;;4979785;28;20046;-66
2020/12/22 03:20:07;;;;;;;1.63;1.52;;;11.00;87.60;;;;;;4980892;28;20035;-66
2020/12/22 03:22:35;;;;;;;1.58;1.48;;;11.00;87.60;;;;;;4979544;28;20039;-65
2020/12/22 03:25:01;;;;;;;1.55;1.45;;;11.00;87.60;;;;;;4980015;28;20038;-66
2020/12/22 03:27:26;;;;;;;1.48;1.38;;;11.10;87.50;;;;;;4980056;28;20096;-66
2020/12/22 03:29:52;;;;;;;2.05;1.35;;;11.10;87.40;;;;;;4980527;28;20533;-65
2020/12/22 03:32:18;;;;;;;1.30;1.20;;;11.10;87.40;;;;;;4980557;28;20532;-66
2020/12/22 03:34:43;;;;;;;1.27;1.17;;;11.20;87.40;;;;;;4979566;28;20068;-66
2020/12/22 03:37:09;;;;;;;1.08;1.00;;;11.20;87.20;;;;;;4980239;28;20042;-66
2020/12/22 03:39:35;;;;;;;1.73;1.02;;;11.20;87.20;;;;;;4979127;28;20153;-66
2020/12/22 03:42:00;;;;;;;4.13;2.72;;;11.20;87.10;;;;;;4978871;28;20572;-65
2020/12/22 03:44:26;;;;;;;5.38;3.63;;;11.30;87.00;;;;;;4978679;28;20046;-65
2020/12/22 03:46:52;;;;;;;40.55;21.83;;;11.30;87.00;;;;;;4979372;28;20104;-65
2020/12/22 03:49:18;;;;;;;4.95;4.53;;;11.30;86.90;;;;;;4978248;28;20053;-65
2020/12/22 03:51:44;;;;;;;2.20;2.03;;;11.30;86.80;;;;;;4978514;28;20118;-66
2020/12/22 03:54:10;;;;;;;1.80;1.65;;;11.40;86.90;;;;;;4978341;28;20416;-65
2020/12/22 03:56:36;;;;;;;1.20;1.10;;;11.40;86.90;;;;;;4978946;28;20129;-66
2020/12/22 03:59:02;;;;;;;1.50;1.40;;;11.40;86.90;;;;;;4979259;28;20051;-65
2020/12/22 04:01:28;;;;;;;1.00;1.00;;;11.40;86.70;;;;;;4978373;28;20047;-66
2020/12/22 04:03:54;;;;;;;1.40;1.30;;;11.40;86.70;;;;;;4980128;28;20042;-65
2020/12/22 04:06:19;;;;;;;0.90;0.90;;;11.40;86.70;;;;;;4979826;28;20030;-66
2020/12/22 04:08:45;;;;;;;0.70;0.70;;;11.40;87.50;;;;;;4978614;28;20549;-66
2020/12/22 04:11:11;;;;;;;0.60;0.60;;;11.40;86.70;;;;;;4978716;28;20450;-66
2020/12/22 04:13:36;;;;;;;0.70;0.70;;;11.40;86.60;;;;;;4977943;28;20031;-65
2020/12/22 04:16:04;;;;;;;0.60;0.60;;;11.50;86.60;;;;;;4979273;28;20450;-66
2020/12/22 04:18:30;;;;;;;1.50;1.40;;;11.50;86.60;;;;;;4979456;28;20039;-65
2020/12/22 04:21:00;;;;;;;1.60;1.50;;;11.50;86.40;;;;;;4980827;28;20031;-65
2020/12/22 04:23:25;;;;;;;1.85;1.75;;;11.50;86.00;;;;;;4978688;28;20062;-65
2020/12/22 04:25:52;;;;;;;2.67;1.83;;;11.50;85.70;;;;;;4978314;28;20062;-65
2020/12/22 04:28:18;;;;;;;2.03;1.83;;;11.50;85.60;;;;;;4979784;28;20129;-66
2020/12/22 04:30:44;;;;;;;1.85;1.58;;;11.50;85.70;;;;;;4978861;28;20041;-65
2020/12/22 04:33:11;;;;;;;1.50;1.40;;;11.40;85.70;;;;;;4979978;28;20040;-65
2020/12/22 04:35:37;;;;;;;2.17;1.80;;;11.40;85.90;;;;;;4979841;28;20033;-65
2020/12/22 04:38:04;;;;;;;1.70;1.60;;;11.40;86.00;;;;;;4979945;28;20553;-66
2020/12/22 04:40:31;;;;;;;1.70;1.60;;;11.40;86.20;;;;;;4979002;28;20123;-65
2020/12/22 04:42:58;;;;;;;1.95;1.85;;;11.40;86.20;;;;;;4979503;28;20031;-66
2020/12/22 04:45:26;;;;;;;2.38;2.20;;;11.30;86.20;;;;;;4979532;28;20652;-66
2020/12/22 04:47:52;;;;;;;2.63;2.42;;;11.30;86.00;;;;;;4978451;28;20094;-65
2020/12/22 04:50:18;;;;;;;2.35;2.15;;;11.30;86.00;;;;;;4978788;28;20050;-66
2020/12/22 04:52:45;;;;;;;2.10;1.95;;;11.30;86.70;;;;;;4979252;28;20063;-66
2020/12/22 04:55:12;;;;;;;2.42;2.22;;;11.30;85.90;;;;;;4981551;28;20118;-66
2020/12/22 04:57:47;;;;;;;3.05;2.00;;;11.30;86.00;;;;;;4980748;28;20043;-66
2020/12/22 05:00:13;;;;;;;2.92;2.72;;;11.30;85.90;;;;;;4982794;28;20117;-65
2020/12/22 05:02:41;;;;;;;2.63;2.42;;;11.20;85.90;;;;;;4982925;28;20114;-65
2020/12/22 05:05:07;;;;;;;2.83;2.63;;;11.20;85.80;;;;;;4981079;28;20050;-66
2020/12/22 05:07:33;;;;;;;2.63;2.42;;;11.20;85.70;;;;;;4982039;28;20080;-66
2020/12/22 05:10:14;;;;;;;4.03;2.60;;;11.20;85.70;;;;;;4982111;28;20062;-65
2020/12/22 05:12:41;;;;;;;2.72;2.53;;;11.20;85.70;;;;;;4981652;28;20395;-66
2020/12/22 05:15:08;;;;;;;2.90;2.70;;;11.10;85.70;;;;;;4982272;28;20030;-65
2020/12/22 05:17:45;;;;;;;3.88;2.70;;;11.10;86.10;;;;;;4980902;28;20437;-64
2020/12/22 05:20:14;;;;;;;3.08;2.78;;;11.10;85.80;;;;;;4982210;28;20030;-65
2020/12/22 05:22:44;;;;;;;3.55;3.17;;;11.10;85.80;;;;;;4981429;28;20412;-66
2020/12/22 05:25:10;;;;;;;3.83;3.30;;;11.00;85.70;;;;;;4982159;28;20038;-65
2020/12/22 05:27:36;;;;;;;4.00;2.95;;;11.00;85.60;;;;;;4982187;28;20547;-65
2020/12/22 05:30:04;;;;;;;3.50;3.20;;;11.00;85.60;;;;;;4982429;28;20917;-66
2020/12/22 05:32:33;;;;;;;3.13;2.85;;;11.00;85.60;;;;;;4981744;28;20040;-66
2020/12/22 05:34:59;;;;;;;3.17;2.97;;;11.00;85.70;;;;;;4982531;28;20037;-65
2020/12/22 05:37:28;;;;;;;3.33;3.03;;;10.90;85.70;;;;;;4981118;28;20039;-66
2020/12/22 05:39:55;;;;;;;3.35;3.03;;;10.90;85.80;;;;;;4996859;28;20034;-65
2020/12/22 05:42:20;;;;;;;3.63;3.22;;;10.90;85.90;;;;;;4981663;28;20037;-65
2020/12/22 05:44:55;;;;;;;3.63;3.17;;;10.90;86.80;;;;;;4980219;28;20042;-65
2020/12/22 05:47:21;;;;;;;2.50;2.30;;;10.90;86.20;;;;;;4982257;28;20037;-65
2020/12/22 05:49:55;;;;;;;1.75;1.60;;;10.90;87.30;;;;;;4981482;28;20478;-65
2020/12/22 05:52:26;;;;;;;1.30;1.20;;;10.90;86.60;;;;;;4981791;28;20030;-66
2020/12/22 05:54:53;;;;;;;1.15;1.05;;;10.90;86.70;;;;;;4981522;28;20068;-65
2020/12/22 05:57:23;;;;;;;2.13;1.35;;;11.00;86.90;;;;;;4981282;28;20030;-65
2020/12/22 05:59:49;;;;;;;1.70;1.15;;;11.00;87.00;;;;;;4980841;28;20046;-66
2020/12/22 06:02:29;;;;;;;1.20;1.10;;;11.00;86.90;;;;;;4987635;28;20042;-65
2020/12/22 06:04:57;;;;;;;2.00;1.20;;;11.10;87.10;;;;;;4981115;28;20095;-66
2020/12/22 06:07:23;;;;;;;2.10;1.90;;;11.10;87.00;;;;;;4995867;28;20031;-65
2020/12/22 06:09:49;;;;;;;1.17;1.08;;;11.10;86.90;;;;;;4981425;28;20084;-66
2020/12/22 06:12:17;;;;;;;1.58;1.00;;;11.20;86.90;;;;;;4980916;28;20051;-65
2020/12/22 06:14:50;;;;;;;1.60;1.50;;;11.20;87.00;;;;;;4980579;28;20034;-66
2020/12/22 06:17:16;;;;;;;1.75;1.10;;;11.20;86.90;;;;;;4981397;28;20038;-66
2020/12/22 06:19:44;;;;;;;0.85;0.82;;;11.30;86.90;;;;;;4981258;28;20038;-65
2020/12/22 06:22:17;;;;;;;1.80;1.00;;;11.30;86.90;;;;;;4981261;28;20122;-66
2020/12/22 06:24:44;;;;;;;3.88;1.20;;;11.30;86.90;;;;;;4980795;28;20053;-65
2020/12/22 06:27:12;;;;;;;0.70;0.70;;;11.40;86.90;;;;;;4980518;28;20092;-65
2020/12/22 06:29:42;;;;;;;0.65;0.60;;;11.40;86.80;;;;;;4980375;28;20038;-66
2020/12/22 06:32:16;;;;;;;0.65;0.65;;;11.40;86.70;;;;;;4980646;28;20034;-65
2020/12/22 06:34:46;;;;;;;0.60;0.60;;;11.50;86.60;;;;;;4994696;28;20038;-65
2020/12/22 06:37:11;;;;;;;1.30;1.20;;;11.50;86.50;;;;;;4980144;28;20033;-66
2020/12/22 06:39:41;;;;;;;0.90;0.90;;;11.50;86.30;;;;;;4980107;28;20035;-65
2020/12/22 06:42:08;;;;;;;1.63;1.15;;;11.50;86.20;;;;;;4980792;28;20498;-66
2020/12/22 06:44:34;;;;;;;0.80;0.80;;;11.60;86.20;;;;;;4980826;28;20541;-66
2020/12/22 06:47:03;;;;;;;1.63;1.52;;;11.60;86.20;;;;;;4980716;28;20042;-65
2020/12/22 06:50:01;;;;;;;1.70;1.55;;;11.60;86.20;;;;;;4986419;28;20453;-65
2020/12/22 06:52:38;;;;;;;1.30;1.13;;;11.60;85.90;;;;;;4972009;28;20041;-66
2020/12/22 06:55:08;;;;;;;2.47;2.17;;;11.60;85.80;;;;;;4980979;28;20490;-66
2020/12/22 06:57:49;;;;;;;1.25;1.10;;;11.70;86.70;;;;;;4979791;28;20030;-65
2020/12/22 07:00:27;;;;;;;1.23;1.10;;;11.70;85.70;;;;;;4979614;28;20173;-66
2020/12/22 07:03:08;;;;;;;0.80;0.80;;;11.70;85.70;;;;;;4979206;28;20040;-65
2020/12/22 07:05:38;;;;;;;0.70;0.70;;;11.70;85.80;;;;;;4980581;28;20580;-66
2020/12/22 07:08:05;;;;;;;0.88;0.60;;;11.80;85.70;;;;;;4979823;28;20047;-66
2020/12/22 07:10:36;;;;;;;0.70;0.70;;;11.80;85.70;;;;;;4979200;28;20054;-66
2020/12/22 07:13:05;;;;;;;0.70;0.70;;;11.80;85.80;;;;;;4979985;28;20027;-65
2020/12/22 07:15:46;;;;;;;0.93;0.60;;;11.80;85.70;;;;;;4979846;28;20031;-65
2020/12/22 07:18:18;;;;;;;0.57;0.57;;;11.80;85.50;;;;;;4979798;28;20117;-65
2020/12/22 07:20:44;;;;;;;0.47;0.40;;;11.90;85.60;;;;;;4979631;28;20030;-66
2020/12/22 07:23:11;;;;;;;1.77;0.55;;;11.90;85.50;;;;;;4980045;28;20039;-64
2020/12/22 07:25:38;;;;;;;0.70;0.30;;;11.90;85.50;;;;;;4980569;28;20683;-66
2020/12/22 07:28:09;;;;;;;0.80;0.50;;;11.90;85.40;;;;;;4980415;28;20556;-65
2020/12/22 07:30:35;;;;;;;0.40;0.40;;;11.90;85.30;;;;;;4979193;28;20043;-65
2020/12/22 07:33:02;;;;;;;0.40;0.40;;;12.00;85.30;;;;;;4980761;28;20031;-65
2020/12/22 07:35:28;;;;;;;1.55;1.00;;;12.00;85.20;;;;;;4973249;28;20150;-65
2020/12/22 07:38:20;;;;;;;1.20;1.10;;;12.00;85.20;;;;;;4979108;28;20520;-66
2020/12/22 07:40:46;;;;;;;1.27;0.95;;;12.00;84.60;;;;;;4976397;28;20441;-66
2020/12/22 07:43:13;;;;;;;1.77;1.35;;;12.00;84.60;;;;;;4980144;28;20030;-66
2020/12/22 07:45:49;;;;;;;3.08;2.75;;;12.00;84.60;;;;;;4996213;28;20041;-66
2020/12/22 07:48:15;;;;;;;1.77;1.63;;;12.00;84.70;;;;;;4980222;28;20391;-66
2020/12/22 07:50:40;;;;;;;1.00;0.90;;;12.00;85.70;;;;;;4979074;28;20042;-66
2020/12/22 07:53:06;;;;;;;2.08;1.30;;;12.00;84.90;;;;;;4980262;28;20574;-66
2020/12/22 07:55:39;;;;;;;1.20;0.90;;;12.00;85.00;;;;;;4981288;28;20060;-66
2020/12/22 07:58:06;;;;;;;1.75;1.38;;;12.00;84.90;;;;;;4980967;28;20058;-66
2020/12/22 08:00:32;;;;;;;0.75;0.73;;;12.00;85.00;;;;;;4980510;28;20035;-66
2020/12/22 08:03:11;;;;;;;1.27;1.17;;;12.00;85.10;;;;;;4978687;28;20041;-66
2020/12/22 08:05:37;;;;;;;1.77;1.05;;;12.00;85.00;;;;;;4973719;28;20034;-67
2020/12/22 08:08:04;;;;;;;4.75;3.20;;;12.00;85.10;;;;;;4979447;28;20085;-67
2020/12/22 08:10:29;;;;;;;1.83;1.63;;;12.10;85.10;;;;;;4976701;28;20023;-66
2020/12/22 08:12:58;;;;;;;1.17;1.05;;;12.10;85.00;;;;;;4978776;28;20500;-67
2020/12/22 08:15:24;;;;;;;0.85;0.70;;;12.10;84.90;;;;;;4977521;28;20625;-66
2020/12/22 08:17:55;;;;;;;1.15;1.13;;;12.20;84.80;;;;;;4983843;28;20077;-66
2020/12/22 08:20:21;;;;;;;0.95;0.88;;;12.20;84.60;;;;;;4979599;28;20117;-68
2020/12/22 08:22:47;;;;;;;2.00;1.80;;;12.20;84.50;;;;;;4981171;28;20402;-66
2020/12/22 08:25:14;;;;;;;2.13;1.92;;;12.20;84.60;;;;;;4980343;28;20510;-66
2020/12/22 08:27:39;;;;;;;1.02;0.80;;;12.20;84.40;;;;;;4979994;28;20045;-67
2020/12/22 08:30:18;;;;;;;3.10;1.00;;;12.20;84.40;;;;;;4983750;28;20058;-67
2020/12/22 08:32:45;;;;;;;2.47;0.90;;;12.20;84.20;;;;;;4982545;28;20034;-67
2020/12/22 08:35:12;;;;;;;1.05;0.90;;;12.20;84.40;;;;;;4983742;28;20026;-66
2020/12/22 08:37:38;;;;;;;1.23;1.13;;;12.20;84.30;;;;;;4981533;28;20034;-65
2020/12/22 08:40:04;;;;;;;1.73;0.93;;;12.20;85.20;;;;;;4983151;28;20030;-65
2020/12/22 08:42:30;;;;;;;1.30;1.00;;;12.20;84.20;;;;;;4983907;28;20039;-66
2020/12/22 08:44:56;;;;;;;0.93;0.77;;;12.30;84.10;;;;;;4980125;28;20353;-67
2020/12/22 08:47:22;;;;;;;1.67;0.88;;;12.30;84.50;;;;;;4981724;28;20038;-66
2020/12/22 08:49:48;;;;;;;1.35;1.23;;;12.30;84.00;;;;;;4983804;28;20121;-67
2020/12/22 08:52:18;;;;;;;2.67;1.70;;;12.30;84.00;;;;;;4983901;28;20037;-67
2020/12/22 08:54:45;;;;;;;1.23;0.95;;;12.30;84.00;;;;;;4982296;28;20040;-66
2020/12/22 08:57:14;;;;;;;2.70;0.80;;;12.30;83.60;;;;;;4982922;28;20246;-67
2020/12/22 08:59:40;;;;;;;0.80;0.73;;;12.30;83.60;;;;;;4983298;28;20455;-68
2020/12/22 09:02:18;;;;;;;0.68;0.63;;;12.30;83.70;;;;;;4983141;28;20505;-68
2020/12/22 09:04:44;;;;;;;1.65;0.60;;;12.40;83.60;;;;;;4981866;28;20528;-67
2020/12/22 09:07:11;;;;;;;0.60;0.60;;;12.40;83.50;;;;;;4982070;28;20031;-67
2020/12/22 09:09:37;;;;;;;0.77;0.77;;;12.40;83.30;;;;;;4982870;28;20450;-67
2020/12/22 09:12:12;;;;;;;1.08;1.02;;;12.50;83.40;;;;;;4981659;28;20150;-67
2020/12/22 09:14:40;;;;;;;0.73;0.70;;;12.50;84.00;;;;;;4980465;28;20031;-67
2020/12/22 09:17:07;;;;;;;1.58;0.73;;;12.50;83.10;;;;;;4979322;28;20054;-67
2020/12/22 09:19:45;;;;;;;0.82;0.80;;;12.50;83.00;;;;;;4982537;28;20617;-67
2020/12/22 09:22:12;;;;;;;0.85;0.85;;;12.50;82.70;;;;;;4981967;28;20084;-66
2020/12/22 09:24:38;;;;;;;0.50;0.50;;;12.60;82.90;;;;;;4980568;28;20031;-66
2020/12/22 09:27:09;;;;;;;0.77;0.65;;;12.60;82.90;;;;;;4983393;28;20121;-67
2020/12/22 09:29:37;;;;;;;0.68;0.60;;;12.60;82.60;;;;;;4981632;28;20057;-66
2020/12/22 09:32:04;;;;;;;0.50;0.50;;;12.60;82.60;;;;;;4981145;28;20030;-67
2020/12/22 09:34:32;;;;;;;0.80;0.50;;;12.60;82.50;;;;;;4981769;28;20065;-67
2020/12/22 09:37:00;;;;;;;0.50;0.50;;;12.70;82.50;;;;;;4982207;28;20034;-66
2020/12/22 09:39:27;;;;;;;0.95;0.60;;;12.70;82.40;;;;;;4980567;28;20034;-67
2020/12/22 09:41:54;;;;;;;0.50;0.50;;;12.80;82.40;;;;;;4980227;28;20091;-68
2020/12/22 09:44:20;;;;;;;0.82;0.50;;;12.80;82.40;;;;;;4981433;28;20054;-67
2020/12/22 09:46:51;;;;;;;0.85;0.40;;;12.80;83.20;;;;;;4982321;28;20039;-67
2020/12/22 09:49:17;;;;;;;1.88;0.93;;;12.80;82.40;;;;;;4981366;28;20093;-67
2020/12/22 09:51:43;;;;;;;3.95;1.23;;;12.90;82.30;;;;;;4980308;28;20089;-67
2020/12/22 09:54:09;;;;;;;0.80;0.40;;;12.90;82.20;;;;;;4982009;28;20046;-66
2020/12/22 09:56:35;;;;;;;0.52;0.40;;;12.90;82.10;;;;;;4980341;28;20042;-66
2020/12/22 09:59:01;;;;;;;0.47;0.47;;;12.90;82.20;;;;;;4979496;28;20031;-68
2020/12/22 10:01:27;;;;;;;1.10;0.35;;;13.00;81.70;;;;;;4982654;28;20037;-67
2020/12/22 10:03:53;;;;;;;0.32;0.32;;;13.00;81.90;;;;;;4979981;28;20042;-65
2020/12/22 10:06:21;;;;;;;0.57;0.28;;;13.00;81.70;;;;;;4982590;28;20498;-67
2020/12/22 10:08:47;;;;;;;0.30;0.20;;;13.10;81.70;;;;;;4978177;28;20055;-66
2020/12/22 10:11:13;;;;;;;0.68;0.30;;;13.10;81.70;;;;;;4979044;28;20398;-68
2020/12/22 10:13:39;;;;;;;1.02;0.28;;;13.20;82.40;;;;;;4979602;28;20498;-67
2020/12/22 10:16:09;;;;;;;0.30;0.30;;;13.20;81.50;;;;;;4978716;28;20105;-68
2020/12/22 10:18:36;;;;;;;0.55;0.50;;;13.30;81.50;;;;;;4979570;28;20057;-67
2020/12/22 10:21:27;;;;;;;0.88;0.57;;;13.30;81.50;;;;;;4981794;28;20042;-67
2020/12/22 10:23:59;;;;;;;0.57;0.50;;;13.40;80.90;;;;;;4981592;28;20034;-68
2020/12/22 10:26:26;;;;;;;0.80;0.60;;;13.40;81.30;;;;;;4979577;28;20050;-68
2020/12/22 10:28:52;;;;;;;1.15;0.75;;;13.40;81.10;;;;;;4994536;28;20031;-67
2020/12/22 10:31:19;;;;;;;0.88;0.63;;;13.50;81.10;;;;;;4979902;28;20133;-67
2020/12/22 10:33:46;;;;;;;0.52;0.50;;;13.50;80.80;;;;;;4978271;28;20549;-68
2020/12/22 10:36:13;;;;;;;1.30;0.60;;;13.50;80.40;;;;;;4983150;28;20038;-67
2020/12/22 10:38:38;;;;;;;2.90;0.70;;;13.50;80.30;;;;;;4994313;28;20041;-68
2020/12/22 10:41:04;;;;;;;1.02;0.50;;;13.50;80.30;;;;;;4980716;28;20031;-68
2020/12/22 10:43:30;;;;;;;0.77;0.50;;;13.60;80.30;;;;;;4978002;28;20092;-68
2020/12/22 10:45:58;;;;;;;0.52;0.45;;;13.60;80.10;;;;;;4980455;28;20022;-69
2020/12/22 10:48:25;;;;;;;0.43;0.40;;;13.60;79.90;;;;;;4979547;28;20451;-66
2020/12/22 10:50:51;;;;;;;0.70;0.35;;;13.60;79.90;;;;;;4979192;28;20041;-68
2020/12/22 10:53:16;;;;;;;0.40;0.30;;;13.60;79.80;;;;;;4980089;28;20031;-68
2020/12/22 10:55:42;;;;;;;0.30;0.30;;;13.60;80.00;;;;;;4980579;28;20038;-68
2020/12/22 10:58:08;;;;;;;0.30;0.22;;;13.60;80.00;;;;;;4979947;28;20522;-66
2020/12/22 11:00:34;;;;;;;1.40;0.30;;;13.60;79.70;;;;;;4980303;28;20041;-68
2020/12/22 11:03:05;;;;;;;0.70;0.63;;;13.70;79.80;;;;;;4979869;28;20057;-68
2020/12/22 11:08:16;;;;;;;0.45;0.22;;;13.70;79.60;;;;;;4980511;28;20045;-67
2020/12/22 11:10:42;;;;;;;1.17;0.30;;;13.70;79.60;;;;;;4982870;28;20038;-68
2020/12/22 11:13:07;;;;;;;0.43;0.40;;;13.80;79.50;;;;;;4979171;28;20048;-68
2020/12/22 11:15:33;;;;;;;0.43;0.25;;;13.70;79.60;;;;;;4976207;28;20402;-69
2020/12/22 11:17:59;;;;;;;0.43;0.30;;;13.80;79.50;;;;;;4976090;28;20045;-68
2020/12/22 11:20:25;;;;;;;0.75;0.20;;;13.80;79.70;;;;;;4980825;28;20042;-68
2020/12/22 11:22:50;;;;;;;0.40;0.30;;;13.80;79.80;;;;;;4979350;28;20035;-68
2020/12/22 11:25:19;;;;;;;0.70;0.20;;;13.80;79.40;;;;;;4980488;28;20153;-68
2020/12/22 11:27:45;;;;;;;0.20;0.20;;;13.90;79.40;;;;;;4980875;28;20454;-68
2020/12/22 11:30:11;;;;;;;0.20;0.20;;;13.90;79.50;;;;;;4984886;28;20034;-68
2020/12/22 11:32:37;;;;;;;0.30;0.22;;;13.90;79.20;;;;;;4978549;28;20101;-68
2020/12/22 11:35:04;;;;;;;0.10;0.10;;;13.90;79.10;;;;;;4977976;28;20045;-68
2020/12/22 11:37:30;;;;;;;0.43;0.25;;;14.00;79.30;;;;;;4994152;28;20611;-68
2020/12/22 11:39:55;;;;;;;0.20;0.20;;;14.00;79.10;;;;;;4980122;28;20070;-67
2020/12/22 11:42:21;;;;;;;0.50;0.32;;;14.00;79.00;;;;;;4979462;28;20145;-68
2020/12/22 11:44:47;;;;;;;1.38;0.43;;;14.10;79.20;;;;;;4985214;28;20030;-67
2020/12/22 11:47:13;;;;;;;1.92;0.60;;;14.10;79.30;;;;;;4979709;28;20038;-68
2020/12/22 11:49:39;;;;;;;1.00;0.22;;;14.20;79.10;;;;;;4979265;28;20042;-68
2020/12/22 11:52:05;;;;;;;0.10;0.10;;;14.20;78.90;;;;;;4979520;28;20112;-68
2020/12/22 11:54:30;;;;;;;0.20;0.20;;;14.30;78.70;;;;;;4978942;28;20071;-68
2020/12/22 11:56:56;;;;;;;1.35;0.13;;;14.30;78.60;;;;;;4978180;28;20027;-68
2020/12/22 11:59:22;;;;;;;0.20;0.20;;;14.40;78.60;;;;;;4978469;28;20062;-67
2020/12/22 12:01:47;;;;;;;0.63;0.40;;;14.40;78.60;;;;;;4980269;28;20026;-68
2020/12/22 12:04:13;;;;;;;0.85;0.73;;;14.40;78.30;;;;;;4983445;28;20042;-68
2020/12/22 12:06:46;;;;;;;0.60;0.30;;;14.50;78.00;;;;;;4982827;28;20467;-67
2020/12/22 12:09:13;;;;;;;1.20;0.30;;;14.50;77.70;;;;;;4982495;28;20044;-68
2020/12/22 12:11:38;;;;;;;0.10;0.10;;;14.50;77.80;;;;;;4983112;28;20530;-68
2020/12/22 12:14:04;;;;;;;0.20;0.20;;;14.60;77.70;;;;;;4983149;28;20176;-68
2020/12/22 12:16:30;;;;;;;0.32;0.30;;;14.60;77.60;;;;;;4980254;28;20045;-68
2020/12/22 12:18:55;;;;;;;1.50;0.20;;;14.60;77.50;;;;;;4982892;28;20065;-68
2020/12/22 12:21:21;;;;;;;0.10;0.10;;;14.60;77.20;;;;;;4983853;28;20126;-68
2020/12/22 12:23:46;;;;;;;0.47;0.20;;;14.70;77.30;;;;;;4982869;28;20238;-68
2020/12/22 12:26:13;;;;;;;0.20;0.20;;;14.70;77.00;;;;;;4984311;28;20126;-68
2020/12/22 12:28:42;;;;;;;1.45;0.20;;;14.70;76.60;;;;;;4982103;28;20030;-68
2020/12/22 12:31:17;;;;;;;0.55;0.40;;;14.80;76.90;;;;;;4982556;28;20027;-68
2020/12/22 12:33:43;;;;;;;0.50;0.30;;;14.80;76.40;;;;;;4981695;28;20067;-68
2020/12/22 12:36:13;;;;;;;0.30;0.20;;;14.80;76.60;;;;;;4983015;28;20043;-68
2020/12/22 12:38:41;;;;;;;0.63;0.30;;;14.90;76.30;;;;;;4980813;28;20034;-68
2020/12/22 12:41:10;;;;;;;0.22;0.20;;;14.80;76.30;;;;;;4983419;28;20576;-68
2020/12/22 12:43:36;;;;;;;0.73;0.20;;;14.80;76.10;;;;;;4983183;28;20042;-68
2020/12/22 12:46:04;;;;;;;0.43;0.30;;;14.90;76.00;;;;;;4982181;28;20035;-69
2020/12/22 12:48:30;;;;;;;0.30;0.25;;;14.80;75.90;;;;;;4996987;28;20038;-67
2020/12/22 12:50:55;;;;;;;0.10;0.10;;;14.90;76.10;;;;;;4983787;28;20053;-68
2020/12/22 12:53:21;;;;;;;0.50;0.28;;;14.90;75.80;;;;;;4981098;28;20105;-68